createdAt,value
2022-10-21T00:01:21.708Z,97523.84
2022-10-21T00:03:48.079Z,97522.19
2022-10-21T00:06:14.733Z,97516.88
2022-10-21T00:08:41.105Z,97515.28
2022-10-21T00:11:07.457Z,97512.84
2022-10-21T00:13:34.077Z,97507.75
2022-10-21T00:16:00.311Z,97506.41
2022-10-21T00:18:26.653Z,97506.66
2022-10-21T00:20:52.897Z,97497.03
2022-10-21T00:23:19.494Z,97507.97
2022-10-21T00:25:45.745Z,97508.22
2022-10-21T00:28:12.364Z,97507.41
2022-10-21T00:30:38.549Z,97511.97
2022-10-21T00:33:04.806Z,97498.25
2022-10-21T00:35:30.997Z,97499.38
2022-10-21T00:37:57.607Z,97496.94
2022-10-21T00:40:23.876Z,97481.22
2022-10-21T00:42:50.376Z,97484.91
2022-10-21T00:45:16.884Z,97480.88
2022-10-21T00:47:43.364Z,97464.06
2022-10-21T00:50:09.624Z,97445.91
2022-10-21T00:52:36.161Z,97455.75
2022-10-21T00:55:02.648Z,97461.59
2022-10-21T00:57:34.756Z,97450.13
2022-10-21T01:00:03.194Z,97444.00
2022-10-21T01:02:29.480Z,97444.25
2022-10-21T01:04:55.761Z,97433.81
2022-10-21T01:07:21.995Z,97423.41
2022-10-21T01:09:48.411Z,97429.00
2022-10-21T01:12:14.785Z,97438.09
2022-10-21T01:14:40.961Z,97427.63
2022-10-21T01:17:20.627Z,97433.78
2022-10-21T01:19:53.048Z,97430.06
2022-10-21T01:22:21.391Z,97428.72
2022-10-21T01:24:47.649Z,97426.31
2022-10-21T01:27:13.844Z,97431.63
2022-10-21T01:29:40.091Z,97434.56
2022-10-21T01:32:06.503Z,97429.22
2022-10-21T01:34:33.025Z,97428.41
2022-10-21T01:36:59.473Z,97423.09
2022-10-21T01:39:25.702Z,97418.56
2022-10-21T01:41:52.675Z,97423.63
2022-10-21T01:44:18.995Z,97422.00
2022-10-21T01:46:45.305Z,97414.81
2022-10-21T01:49:11.523Z,97409.75
2022-10-21T01:51:37.773Z,97417.75
2022-10-21T01:54:03.998Z,97420.41
2022-10-21T01:56:31.638Z,97404.41
2022-10-21T01:58:58.000Z,97407.06
2022-10-21T02:01:24.377Z,97400.16
2022-10-21T02:03:50.774Z,97400.16
2022-10-21T02:06:17.290Z,97404.66
2022-10-21T02:08:43.647Z,97401.19
2022-10-21T02:11:09.913Z,97395.84
2022-10-21T02:13:36.121Z,97389.97
2022-10-21T02:16:02.519Z,97395.31
2022-10-21T02:18:28.790Z,97394.53
2022-10-21T02:20:55.092Z,97387.56
2022-10-21T02:23:21.442Z,97388.38
2022-10-21T02:25:47.729Z,97378.78
2022-10-21T02:28:14.147Z,97373.69
2022-10-21T02:30:40.607Z,97365.44
2022-10-21T02:33:06.873Z,97361.16
2022-10-21T02:35:33.285Z,97359.31
2022-10-21T02:37:59.505Z,97353.97
2022-10-21T02:40:25.699Z,97340.66
2022-10-21T02:42:51.921Z,97343.06
2022-10-21T02:45:18.133Z,97336.91
2022-10-21T02:47:44.365Z,97337.72
2022-10-21T02:50:10.567Z,97341.19
2022-10-21T02:52:36.839Z,97333.97
2022-10-21T02:55:03.725Z,97327.06
2022-10-21T02:57:29.953Z,97329.72
2022-10-21T02:59:56.244Z,97330.53
2022-10-21T03:02:22.610Z,97323.56
2022-10-21T03:04:48.824Z,97336.91
2022-10-21T03:07:15.004Z,97328.91
2022-10-21T03:09:41.375Z,97341.47
2022-10-21T03:12:07.612Z,97329.72
2022-10-21T03:14:34.331Z,97329.72
2022-10-21T03:17:00.814Z,97333.97
2022-10-21T03:19:27.085Z,97330.53
2022-10-21T03:21:53.397Z,97339.31
2022-10-21T03:24:28.559Z,97344.66
2022-10-21T03:26:55.296Z,97344.66
2022-10-21T03:29:21.715Z,97343.88
2022-10-21T03:31:48.288Z,97345.72
2022-10-21T03:34:14.573Z,97343.06
2022-10-21T03:36:40.840Z,97341.47
2022-10-21T03:39:07.026Z,97335.31
2022-10-21T03:41:33.331Z,97327.31
2022-10-21T03:43:59.704Z,97322.78
2022-10-21T03:46:26.079Z,97306.00
2022-10-21T03:48:52.428Z,97308.41
2022-10-21T03:51:18.752Z,97308.41
2022-10-21T03:53:45.127Z,97322.53
2022-10-21T03:56:11.410Z,97309.97
2022-10-21T03:58:37.714Z,97308.94
2022-10-21T04:01:03.985Z,97322.28
2022-10-21T04:03:30.263Z,97318.78
2022-10-21T04:05:56.576Z,97316.94
2022-10-21T04:08:23.637Z,97300.94
2022-10-21T04:10:49.977Z,97294.81
2022-10-21T04:13:16.374Z,97306.28
2022-10-21T04:15:42.634Z,97288.44
2022-10-21T04:18:08.945Z,97280.44
2022-10-21T04:20:35.312Z,97292.94
2022-10-21T04:23:01.577Z,97286.53
2022-10-21T04:25:27.828Z,97295.34
2022-10-21T04:27:54.050Z,97291.88
2022-10-21T04:30:20.392Z,97291.88
2022-10-21T04:32:46.627Z,97302.53
2022-10-21T04:35:12.918Z,97295.09
2022-10-21T04:37:39.259Z,97291.34
2022-10-21T04:40:05.594Z,97293.78
2022-10-21T04:42:31.951Z,97282.06
2022-10-21T04:44:58.340Z,97283.16
2022-10-21T04:47:24.631Z,97278.13
2022-10-21T04:49:50.872Z,97273.69
2022-10-21T04:52:17.047Z,97274.28
2022-10-21T04:54:43.297Z,97277.53
2022-10-21T04:57:09.489Z,97266.34
2022-10-21T04:59:35.795Z,97272.53
2022-10-21T05:04:33.293Z,97271.56
2022-10-21T05:06:59.670Z,97278.53
2022-10-21T05:09:25.934Z,97273.78
2022-10-21T05:11:52.191Z,97269.25
2022-10-21T05:14:21.701Z,97273.81
2022-10-21T05:16:49.054Z,97269.00
2022-10-21T05:19:15.948Z,97264.72
2022-10-21T05:21:42.267Z,97267.94
2022-10-21T05:24:08.732Z,97265.78
2022-10-21T05:26:34.955Z,97262.03
2022-10-21T05:29:01.268Z,97254.84
2022-10-21T05:31:27.547Z,97249.47
2022-10-21T05:33:53.785Z,97249.22
2022-10-21T05:36:21.896Z,97242.00
2022-10-21T05:38:50.991Z,97247.34
2022-10-21T05:41:17.402Z,97241.19
2022-10-21T05:43:43.621Z,97232.41
2022-10-21T05:46:09.845Z,97239.34
2022-10-21T05:48:36.107Z,97227.81
2022-10-21T05:51:02.427Z,97237.75
2022-10-21T05:53:28.650Z,97240.91
2022-10-21T05:55:54.870Z,97235.84
2022-10-21T05:58:21.088Z,97240.16
2022-10-21T06:00:47.895Z,97246.28
2022-10-21T06:03:14.374Z,97245.22
2022-10-21T06:05:40.645Z,97249.47
2022-10-21T06:08:06.904Z,97241.47
2022-10-21T06:10:33.119Z,97232.66
2022-10-21T06:12:59.323Z,97243.34
2022-10-21T06:15:25.691Z,97232.66
2022-10-21T06:17:51.969Z,97228.91
2022-10-21T06:20:18.610Z,97231.84
2022-10-21T06:22:44.921Z,97227.03
2022-10-21T06:25:11.474Z,97235.59
2022-10-21T06:27:38.046Z,97232.66
2022-10-21T06:30:04.420Z,97235.84
2022-10-21T06:32:30.709Z,97234.50
2022-10-21T06:34:56.980Z,97238.53
2022-10-21T06:37:23.228Z,97237.69
2022-10-21T06:39:49.494Z,97240.63
2022-10-21T06:42:15.756Z,97244.66
2022-10-21T06:44:42.494Z,97259.34
2022-10-21T06:47:08.736Z,97259.06
2022-10-21T06:49:34.963Z,97265.22
2022-10-21T06:52:01.223Z,97267.34
2022-10-21T06:54:27.442Z,97281.56
2022-10-21T06:56:55.184Z,97273.03
2022-10-21T06:59:21.401Z,97262.31
2022-10-21T07:01:59.825Z,97272.16
2022-10-21T07:04:26.795Z,97275.06
2022-10-21T07:06:53.071Z,97269.47
2022-10-21T07:09:19.461Z,97263.59
2022-10-21T07:11:45.789Z,97278.03
2022-10-21T07:14:12.015Z,97268.91
2022-10-21T07:16:38.268Z,97275.84
2022-10-21T07:19:04.615Z,97285.75
2022-10-21T07:21:30.842Z,97278.78
2022-10-21T07:23:59.222Z,97273.69
2022-10-21T07:26:25.827Z,97263.53
2022-10-21T07:28:52.163Z,97264.31
2022-10-21T07:31:18.410Z,97267.53
2022-10-21T07:33:44.630Z,97267.78
2022-10-21T07:36:10.889Z,97284.06
2022-10-21T07:38:37.141Z,97276.28
2022-10-21T07:41:03.374Z,97278.41
2022-10-21T07:43:29.672Z,97279.47
2022-10-21T07:46:01.887Z,97282.72
2022-10-21T07:48:31.042Z,97274.41
2022-10-21T07:50:57.654Z,97275.19
2022-10-21T07:53:24.049Z,97280.00
2022-10-21T07:55:50.519Z,97283.22
2022-10-21T07:58:16.752Z,97283.22
2022-10-21T08:00:43.082Z,97274.34
2022-10-21T08:03:09.352Z,97287.41
2022-10-21T08:05:35.610Z,97278.59
2022-10-21T08:08:06.350Z,97280.19
2022-10-21T08:10:40.189Z,97278.59
2022-10-21T08:13:07.211Z,97277.22
2022-10-21T08:15:33.510Z,97279.88
2022-10-21T08:17:59.764Z,97275.63
2022-10-21T08:20:25.979Z,97277.19
2022-10-21T08:22:52.212Z,97280.41
2022-10-21T08:25:18.543Z,97285.78
2022-10-21T08:27:44.821Z,97282.28
2022-10-21T08:30:11.088Z,97280.94
2022-10-21T08:32:37.869Z,97282.00
2022-10-21T08:35:07.058Z,97274.25
2022-10-21T08:37:43.075Z,97269.69
2022-10-21T08:40:18.950Z,97274.78
2022-10-21T08:42:49.682Z,97275.06
2022-10-21T08:45:16.090Z,97273.97
2022-10-21T08:47:42.481Z,97269.41
2022-10-21T08:50:11.983Z,97272.91
2022-10-21T08:52:38.368Z,97258.41
2022-10-21T08:55:04.746Z,97255.44
2022-10-21T08:57:32.151Z,97260.81
2022-10-21T09:00:02.455Z,97260.56
2022-10-21T09:02:28.951Z,97269.66
2022-10-21T09:04:55.441Z,97273.44
2022-10-21T09:07:22.292Z,97274.50
2022-10-21T09:09:48.710Z,97271.81
2022-10-21T09:12:14.953Z,97276.38
2022-10-21T09:14:41.158Z,97282.53
2022-10-21T09:17:08.589Z,97277.16
2022-10-21T09:19:34.842Z,97275.31
2022-10-21T09:22:16.154Z,97278.78
2022-10-21T09:24:47.529Z,97282.25
2022-10-21T09:27:15.135Z,97273.44
2022-10-21T09:29:41.525Z,97276.88
2022-10-21T09:32:08.154Z,97271.53
2022-10-21T09:34:34.958Z,97271.53
2022-10-21T09:37:01.614Z,97275.81
2022-10-21T09:39:28.536Z,97271.53
2022-10-21T09:41:58.283Z,97255.25
2022-10-21T09:44:26.288Z,97268.59
2022-10-21T09:46:52.558Z,97265.41
2022-10-21T09:52:05.912Z,97272.13
2022-10-21T09:54:32.581Z,97273.47
2022-10-21T09:56:58.816Z,97271.06
2022-10-21T09:59:29.076Z,97281.78
2022-10-21T10:01:58.300Z,97281.00
2022-10-21T10:04:24.611Z,97286.38
2022-10-21T10:06:56.827Z,97280.47
2022-10-21T10:09:23.127Z,97280.47
2022-10-21T10:11:49.420Z,97286.88
2022-10-21T10:14:15.834Z,97284.22
2022-10-21T10:16:42.426Z,97281.53
2022-10-21T10:19:08.630Z,97279.94
2022-10-21T10:21:34.829Z,97278.34
2022-10-21T10:24:01.027Z,97267.63
2022-10-21T10:26:28.383Z,97268.41
2022-10-21T10:28:55.148Z,97263.06
2022-10-21T10:31:21.830Z,97262.28
2022-10-21T10:33:48.258Z,97264.16
2022-10-21T10:36:14.598Z,97266.53
2022-10-21T10:38:40.878Z,97263.59
2022-10-21T10:41:07.050Z,97259.84
2022-10-21T10:43:33.321Z,97254.22
2022-10-21T10:45:59.526Z,97258.47
2022-10-21T10:48:25.834Z,97257.38
2022-10-21T10:50:52.090Z,97257.38
2022-10-21T10:53:18.326Z,97263.56
2022-10-21T10:55:46.093Z,97256.31
2022-10-21T10:58:16.368Z,97250.97
2022-10-21T11:00:44.933Z,97255.50
2022-10-21T11:03:13.547Z,97252.84
2022-10-21T11:11:34.755Z,97265.94
2022-10-21T11:16:59.660Z,97263.28
2022-10-21T11:19:27.195Z,97263.28
2022-10-21T11:21:53.530Z,97261.41
2022-10-21T11:24:19.792Z,97258.72
2022-10-21T11:27:04.408Z,97260.59
2022-10-21T11:29:31.040Z,97262.22
2022-10-21T11:32:11.277Z,97259.53
2022-10-21T11:35:14.005Z,97255.25
2022-10-21T11:37:38.796Z,97255.25
2022-10-21T11:49:19.765Z,97233.81
2022-10-21T11:51:46.335Z,97236.47
2022-10-21T11:54:12.819Z,97233.03
2022-10-21T11:56:39.133Z,97234.59
2022-10-21T11:59:05.423Z,97239.97
2022-10-21T12:01:31.956Z,97245.31
2022-10-21T12:03:58.949Z,97243.47
2022-10-21T12:06:29.846Z,97237.28
2022-10-21T12:08:56.369Z,97243.47
2022-10-21T12:11:22.707Z,97239.97
2022-10-21T12:14:38.220Z,97242.66
2022-10-21T12:16:47.051Z,97235.41
2022-10-21T12:19:22.079Z,97230.84
2022-10-21T12:21:49.790Z,97235.41
2022-10-21T12:27:41.309Z,97235.13
2022-10-21T12:30:08.590Z,97232.47
2022-10-21T12:32:37.909Z,97233.53
2022-10-21T12:35:04.390Z,97228.97
2022-10-21T12:37:31.239Z,97240.22
2022-10-21T12:39:57.555Z,97240.22
2022-10-21T12:42:23.845Z,97234.84
2022-10-21T12:44:50.223Z,97230.31
2022-10-21T12:47:16.451Z,97236.44
2022-10-21T12:49:42.727Z,97236.44
2022-10-21T12:52:08.944Z,97238.06
2022-10-21T12:54:35.194Z,97228.41
2022-10-21T12:57:01.589Z,97227.34
2022-10-21T12:59:27.867Z,97231.63
2022-10-21T13:01:54.306Z,97226.25
2022-10-21T13:04:20.557Z,97221.41
2022-10-21T13:06:47.127Z,97216.06
2022-10-21T13:09:15.561Z,97213.91
2022-10-21T13:11:42.961Z,97213.91
2022-10-21T13:14:09.321Z,97207.47
2022-10-21T13:16:35.651Z,97202.91
2022-10-21T13:19:03.385Z,97204.78
2022-10-21T13:21:29.723Z,97213.91
2022-10-21T13:23:56.088Z,97218.19
2022-10-21T13:26:24.106Z,97213.91
2022-10-21T13:28:50.743Z,97214.72
2022-10-21T13:31:16.983Z,97215.50
2022-10-21T13:33:43.284Z,97219.28
2022-10-21T13:36:09.561Z,97220.38
2022-10-21T13:38:37.986Z,97221.94
2022-10-21T13:41:07.649Z,97222.75
2022-10-21T13:43:34.295Z,97220.84
2022-10-21T13:46:01.047Z,97225.44
2022-10-21T13:48:27.508Z,97225.44
2022-10-21T13:50:54.262Z,97229.97
2022-10-21T13:53:20.886Z,97229.19
2022-10-21T13:55:47.265Z,97226.50
2022-10-21T13:58:13.945Z,97244.19
2022-10-21T14:00:40.232Z,97242.28
2022-10-21T14:03:06.472Z,97244.97
2022-10-21T14:05:32.715Z,97245.78
2022-10-21T14:07:59.807Z,97235.94
2022-10-21T14:10:26.156Z,97265.63
2022-10-21T14:12:52.487Z,97276.88
2022-10-21T14:15:18.795Z,97276.09
2022-10-21T14:17:45.394Z,97277.16
2022-10-21T14:20:11.640Z,97275.59
2022-10-21T14:22:38.149Z,97277.16
2022-10-21T14:25:04.853Z,97271.81
2022-10-21T14:27:31.334Z,97269.13
2022-10-21T14:29:57.595Z,97262.19
2022-10-21T14:32:23.816Z,97259.50
2022-10-21T14:34:50.067Z,97258.13
2022-10-21T14:37:16.288Z,97246.34
2022-10-21T14:39:42.486Z,97259.47
2022-10-21T14:42:08.930Z,97262.94
2022-10-21T14:44:35.117Z,97264.53
2022-10-21T14:47:01.347Z,97264.53
2022-10-21T14:49:27.565Z,97261.88
2022-10-21T14:51:53.837Z,97245.78
2022-10-21T14:54:20.066Z,97242.81
2022-10-21T14:56:46.291Z,97229.13
2022-10-21T14:59:12.528Z,97228.34
2022-10-21T15:01:39.065Z,97214.69
2022-10-21T15:04:05.249Z,97217.34
2022-10-21T15:06:32.018Z,97221.91
2022-10-21T15:08:58.481Z,97231.56
2022-10-21T15:11:24.764Z,97228.06
2022-10-21T15:13:51.091Z,97233.44
2022-10-21T15:16:17.526Z,97240.94
2022-10-21T15:18:43.749Z,97238.56
2022-10-21T15:21:10.649Z,97235.88
2022-10-21T15:23:36.903Z,97243.91
2022-10-21T15:26:03.156Z,97242.28
2022-10-21T15:28:29.462Z,97243.38
2022-10-21T15:30:55.725Z,97248.47
2022-10-21T15:33:21.945Z,97251.44
2022-10-21T15:35:48.198Z,97257.88
2022-10-21T15:38:14.456Z,97263.50
2022-10-21T15:40:40.851Z,97262.44
2022-10-21T15:43:07.091Z,97261.91
2022-10-21T15:45:33.273Z,97242.41
2022-10-21T15:47:59.540Z,97250.66
2022-10-21T15:50:25.762Z,97260.56
2022-10-21T15:52:52.101Z,97261.66
2022-10-21T15:55:18.322Z,97260.84
2022-10-21T15:57:44.533Z,97259.25
2022-10-21T16:00:10.771Z,97260.31
2022-10-21T16:02:37.341Z,97269.44
2022-10-21T16:05:03.955Z,97271.31
2022-10-21T16:10:14.204Z,97268.38
2022-10-21T16:12:40.828Z,97265.72
2022-10-21T16:15:07.249Z,97261.72
2022-10-21T16:17:33.648Z,97255.56
2022-10-21T16:20:01.932Z,97255.56
2022-10-21T16:22:30.201Z,97241.63
2022-10-21T16:24:56.462Z,97243.53
2022-10-21T16:27:26.546Z,97248.34
2022-10-21T16:30:03.372Z,97253.72
2022-10-21T16:32:29.574Z,97255.88
2022-10-21T16:34:55.775Z,97259.59
2022-10-21T16:37:22.163Z,97254.25
2022-10-21T16:39:48.459Z,97258.81
2022-10-21T16:42:15.200Z,97258.28
2022-10-21T16:44:42.054Z,97262.84
2022-10-21T16:47:08.264Z,97252.41
2022-10-21T16:49:34.545Z,97260.44
2022-10-21T16:52:00.772Z,97255.38
2022-10-21T16:54:26.986Z,97261.78
2022-10-21T16:56:55.184Z,97265.53
2022-10-21T16:59:22.243Z,97262.88
2022-10-21T17:01:48.565Z,97258.59
2022-10-21T17:04:14.795Z,97265.00
2022-10-21T17:06:41.559Z,97261.50
2022-10-21T17:09:07.956Z,97258.81
2022-10-21T17:11:34.351Z,97258.03
2022-10-21T17:14:00.666Z,97255.63
2022-10-21T17:16:27.083Z,97252.16
2022-10-21T17:18:53.298Z,97265.53
2022-10-21T17:21:19.582Z,97262.06
2022-10-21T17:23:45.994Z,97265.81
2022-10-21T17:26:12.264Z,97260.75
2022-10-21T17:28:38.582Z,97266.09
2022-10-21T17:31:11.044Z,97272.53
2022-10-21T17:33:37.324Z,97268.25
2022-10-21T17:36:03.613Z,97265.56
2022-10-21T17:38:29.890Z,97273.06
2022-10-21T17:40:56.124Z,97269.59
2022-10-21T17:43:22.576Z,97274.16
2022-10-21T17:45:48.798Z,97276.84
2022-10-21T17:48:15.009Z,97280.56
2022-10-21T17:50:41.324Z,97281.66
2022-10-21T17:53:07.615Z,97287.31
2022-10-21T17:55:33.869Z,97295.06
2022-10-21T17:58:00.631Z,97289.69
2022-10-21T18:00:27.311Z,97289.97
2022-10-21T18:02:53.638Z,97291.03
2022-10-21T18:05:19.909Z,97295.59
2022-10-21T18:07:46.115Z,97293.72
2022-10-21T18:10:12.479Z,97292.91
2022-10-21T18:12:38.975Z,97295.84
2022-10-21T18:15:06.780Z,97302.03
2022-10-21T18:17:33.057Z,97302.03
2022-10-21T18:20:01.764Z,97303.13
2022-10-21T18:22:28.123Z,97301.50
2022-10-21T18:24:56.724Z,97300.44
2022-10-21T18:27:23.236Z,97296.94
2022-10-21T18:29:49.593Z,97293.47
2022-10-21T18:32:15.967Z,97298.81
2022-10-21T18:34:42.318Z,97296.94
2022-10-21T18:37:10.076Z,97296.94
2022-10-21T18:39:43.407Z,97288.91
2022-10-21T18:42:25.342Z,97289.72
2022-10-21T18:44:51.796Z,97288.09
2022-10-21T18:47:22.121Z,97275.81
2022-10-21T18:49:48.385Z,97284.63
2022-10-21T18:52:14.758Z,97288.09
2022-10-21T18:54:41.269Z,97280.06
2022-10-21T18:57:07.636Z,97277.38
2022-10-21T18:59:36.731Z,97278.19
2022-10-21T19:02:04.960Z,97285.44
2022-10-21T19:04:37.384Z,97277.38
2022-10-21T19:10:08.033Z,97288.91
2022-10-21T19:12:34.458Z,97289.72
2022-10-21T19:15:00.846Z,97285.16
2022-10-21T19:17:27.091Z,97287.03
2022-10-21T19:19:53.429Z,97286.25
2022-10-21T19:22:19.701Z,97287.03
2022-10-21T19:24:47.501Z,97289.72
2022-10-21T19:27:16.370Z,97293.19
2022-10-21T19:29:42.798Z,97296.66
2022-10-21T19:32:09.364Z,97299.34
2022-10-21T19:34:35.832Z,97296.66
2022-10-21T19:37:04.611Z,97298.25
2022-10-21T19:39:30.987Z,97295.59
2022-10-21T19:41:57.425Z,97295.84
2022-10-21T19:44:23.839Z,97299.34
2022-10-21T19:46:50.377Z,97310.88
2022-10-21T19:52:05.910Z,97301.22
2022-10-21T19:54:32.339Z,97302.56
2022-10-21T19:56:58.710Z,97303.63
2022-10-21T19:59:25.009Z,97298.25
2022-10-21T20:01:51.339Z,97290.22
2022-10-21T20:04:17.718Z,97299.06
2022-10-21T20:06:44.973Z,97306.81
2022-10-21T20:09:13.953Z,97300.69
2022-10-21T20:11:40.281Z,97295.59
2022-10-21T20:14:06.631Z,97294.53
2022-10-21T20:16:33.039Z,97298.00
2022-10-21T20:18:59.552Z,97297.19
2022-10-21T20:21:26.355Z,97298.00
2022-10-21T20:23:55.911Z,97309.78
2022-10-21T20:26:22.562Z,97323.97
2022-10-21T20:28:48.875Z,97335.50
2022-10-21T20:31:15.189Z,97335.50
2022-10-21T20:33:41.457Z,97329.06
2022-10-21T20:36:08.105Z,97342.44
2022-10-21T20:38:35.758Z,97358.50
2022-10-21T20:41:02.090Z,97368.13
2022-10-21T20:43:28.346Z,97370.03
2022-10-21T20:45:54.750Z,97370.81
2022-10-21T20:48:21.037Z,97371.09
2022-10-21T20:50:47.274Z,97383.44
2022-10-21T20:53:16.479Z,97378.06
2022-10-21T20:55:45.600Z,97370.03
2022-10-21T20:58:14.614Z,97350.19
2022-10-21T21:00:44.758Z,97344.84
2022-10-21T21:03:13.013Z,97344.84
2022-10-21T21:05:39.364Z,97351.81
2022-10-21T21:08:06.028Z,97368.94
2022-10-21T21:10:34.290Z,97385.03
2022-10-21T21:13:00.620Z,97385.81
2022-10-21T21:15:27.813Z,97389.31
2022-10-21T21:17:54.052Z,97391.19
2022-10-21T21:20:20.346Z,97389.31
2022-10-21T21:22:46.870Z,97386.63
2022-10-21T21:25:13.080Z,97385.03
2022-10-21T21:30:23.138Z,97362.53
2022-10-21T21:32:49.380Z,97354.50
2022-10-21T21:35:15.637Z,97338.44
2022-10-21T21:37:41.926Z,97337.63
2022-10-21T21:40:08.146Z,97342.97
2022-10-21T21:42:34.944Z,97346.72
2022-10-21T21:45:01.212Z,97347.53
2022-10-21T21:47:27.492Z,97347.53
2022-10-21T21:49:53.754Z,97342.16
2022-10-21T21:52:20.035Z,97342.16
2022-10-21T21:54:46.239Z,97334.94
2022-10-21T21:57:28.503Z,97333.06
2022-10-21T21:59:55.194Z,97335.22
2022-10-21T22:02:21.585Z,97328.25
2022-10-21T22:04:47.846Z,97324.25
2022-10-21T22:07:14.291Z,97327.72
2022-10-21T22:09:41.242Z,97321.34
2022-10-21T22:12:07.479Z,97318.41
2022-10-21T22:14:33.722Z,97328.56
2022-10-21T22:16:59.938Z,97354.00
2022-10-21T22:19:26.455Z,97383.19
2022-10-21T22:21:53.228Z,97393.63
2022-10-21T22:24:19.963Z,97398.72
2022-10-21T22:26:46.216Z,97393.91
2022-10-21T22:29:12.524Z,97384.81
2022-10-21T22:31:38.792Z,97371.97
2022-10-21T22:34:07.871Z,97355.66
2022-10-21T22:36:37.237Z,97355.13
2022-10-21T22:39:03.940Z,97351.13
2022-10-21T22:41:30.343Z,97355.13
2022-10-21T22:43:56.581Z,97343.88
2022-10-21T22:46:34.393Z,97347.09
2022-10-21T22:49:01.130Z,97338.53
2022-10-21T22:51:27.377Z,97335.34
2022-10-21T22:53:56.454Z,97328.66
2022-10-21T22:56:23.169Z,97327.03
2022-10-21T22:58:49.356Z,97321.97
2022-10-21T23:01:15.617Z,97314.47
2022-10-21T23:03:41.848Z,97316.59
2022-10-21T23:06:08.099Z,97316.59
2022-10-21T23:08:34.329Z,97316.06
2022-10-21T23:11:00.585Z,97322.75
2022-10-21T23:13:26.808Z,97328.34
2022-10-21T23:15:53.047Z,97336.38
2022-10-21T23:18:19.252Z,97338.53
2022-10-21T23:20:45.460Z,97330.75
2022-10-21T23:23:11.687Z,97330.25
2022-10-21T23:25:37.921Z,97354.56
2022-10-21T23:28:04.210Z,97354.03
2022-10-21T23:30:30.520Z,97347.06
2022-10-21T23:32:56.878Z,97346.53
2022-10-21T23:35:23.178Z,97357.50
2022-10-21T23:37:49.385Z,97378.13
2022-10-21T23:40:15.626Z,97378.34
2022-10-21T23:42:44.485Z,97376.75
2022-10-21T23:45:10.896Z,97398.69
2022-10-21T23:47:37.420Z,97375.69
2022-10-21T23:50:03.872Z,97366.06
2022-10-21T23:52:30.087Z,97361.00
2022-10-21T23:54:56.300Z,97354.28
2022-10-21T23:57:22.710Z,97347.34
2022-10-21T23:59:49.105Z,97351.06
